sensor_id;sensor_type;location;lat;lon;timestamp;pressure;altitude;pressure_sealevel;temperature;humidity
71621;BME280;59471;42.254;23.102;2022-08-21T00:01:47;95363.78;;;19.61;80.99
71621;BME280;59471;42.254;23.102;2022-08-21T00:04:13;95369.59;;;19.58;81.28
71621;BME280;59471;42.254;23.102;2022-08-21T00:06:38;95376.66;;;19.70;80.67
71621;BME280;59471;42.254;23.102;2022-08-21T00:09:06;95373.50;;;19.73;80.16
71621;BME280;59471;42.254;23.102;2022-08-21T00:11:34;95368.25;;;19.78;79.27
71621;BME280;59471;42.254;23.102;2022-08-21T00:14:03;95373.44;;;19.67;79.68
71621;BME280;59471;42.254;23.102;2022-08-21T00:16:30;95374.69;;;19.82;78.44
71621;BME280;59471;42.254;23.102;2022-08-21T00:18:55;95372.78;;;19.60;79.26
71621;BME280;59471;42.254;23.102;2022-08-21T00:21:21;95370.25;;;19.32;82.18
71621;BME280;59471;42.254;23.102;2022-08-21T00:23:47;95369.91;;;19.45;80.98
71621;BME280;59471;42.254;23.102;2022-08-21T00:26:13;95378.66;;;19.62;80.21
71621;BME280;59471;42.254;23.102;2022-08-21T00:28:38;95362.03;;;19.50;79.82
71621;BME280;59471;42.254;23.102;2022-08-21T00:31:04;95360.91;;;19.46;80.51
71621;BME280;59471;42.254;23.102;2022-08-21T00:33:30;95379.91;;;19.55;79.96
71621;BME280;59471;42.254;23.102;2022-08-21T00:35:57;95373.50;;;19.73;79.26
71621;BME280;59471;42.254;23.102;2022-08-21T00:38:22;95373.75;;;19.54;79.90
71621;BME280;59471;42.254;23.102;2022-08-21T00:40:51;95371.03;;;19.49;80.32
71621;BME280;59471;42.254;23.102;2022-08-21T00:43:24;95366.09;;;19.36;80.57
71621;BME280;59471;42.254;23.102;2022-08-21T00:45:53;95377.50;;;19.36;80.61
71621;BME280;59471;42.254;23.102;2022-08-21T00:48:20;95367.34;;;19.50;80.71
71621;BME280;59471;42.254;23.102;2022-08-21T00:50:50;95376.28;;;19.44;81.21
71621;BME280;59471;42.254;23.102;2022-08-21T00:53:23;95386.50;;;19.52;80.49
71621;BME280;59471;42.254;23.102;2022-08-21T00:55:50;95384.00;;;19.45;80.97
71621;BME280;59471;42.254;23.102;2022-08-21T00:58:16;95387.16;;;19.42;81.25
71621;BME280;59471;42.254;23.102;2022-08-21T01:00:45;95382.06;;;19.41;81.27
71621;BME280;59471;42.254;23.102;2022-08-21T01:03:15;95396.03;;;19.70;79.74
71621;BME280;59471;42.254;23.102;2022-08-21T01:05:43;95393.53;;;19.63;80.10
71621;BME280;59471;42.254;23.102;2022-08-21T01:08:10;95390.84;;;19.58;80.51
71621;BME280;59471;42.254;23.102;2022-08-21T01:10:36;95386.19;;;19.49;81.04
71621;BME280;59471;42.254;23.102;2022-08-21T01:13:04;95385.69;;;19.35;81.46
71621;BME280;59471;42.254;23.102;2022-08-21T01:15:36;95376.75;;;19.41;81.56
71621;BME280;59471;42.254;23.102;2022-08-21T01:18:06;95379.91;;;19.38;81.35
71621;BME280;59471;42.254;23.102;2022-08-21T01:20:35;95378.38;;;19.42;81.57
71621;BME280;59471;42.254;23.102;2022-08-21T01:23:03;95375.22;;;19.45;80.49
71621;BME280;59471;42.254;23.102;2022-08-21T01:25:31;95375.09;;;19.35;81.05
71621;BME280;59471;42.254;23.102;2022-08-21T01:27:59;95370.09;;;19.38;80.16
71621;BME280;59471;42.254;23.102;2022-08-21T01:30:28;95360.06;;;19.62;79.78
71621;BME280;59471;42.254;23.102;2022-08-21T01:32:54;95350.78;;;19.82;77.90
71621;BME280;59471;42.254;23.102;2022-08-21T01:35:21;95346.78;;;19.24;81.25
71621;BME280;59471;42.254;23.102;2022-08-21T01:37:47;95349.44;;;19.07;81.86
71621;BME280;59471;42.254;23.102;2022-08-21T01:40:14;95352.41;;;19.10;82.31
71621;BME280;59471;42.254;23.102;2022-08-21T01:42:43;95349.00;;;19.32;81.80
71621;BME280;59471;42.254;23.102;2022-08-21T01:45:11;95351.78;;;19.20;81.76
71621;BME280;59471;42.254;23.102;2022-08-21T01:47:37;95347.00;;;19.39;80.77
71621;BME280;59471;42.254;23.102;2022-08-21T01:50:10;95344.34;;;19.39;80.66
71621;BME280;59471;42.254;23.102;2022-08-21T01:52:37;95351.31;;;19.23;81.28
71621;BME280;59471;42.254;23.102;2022-08-21T01:55:04;95353.84;;;19.35;80.73
71621;BME280;59471;42.254;23.102;2022-08-21T01:57:31;95345.28;;;19.50;80.30
71621;BME280;59471;42.254;23.102;2022-08-21T01:59:58;95351.44;;;19.33;80.86
71621;BME280;59471;42.254;23.102;2022-08-21T02:02:24;95347.94;;;18.94;83.07
71621;BME280;59471;42.254;23.102;2022-08-21T02:04:49;95348.88;;;19.21;81.95
71621;BME280;59471;42.254;23.102;2022-08-21T02:07:15;95341.78;;;19.10;82.28
71621;BME280;59471;42.254;23.102;2022-08-21T02:09:41;95339.22;;;19.15;81.60
71621;BME280;59471;42.254;23.102;2022-08-21T02:12:10;95344.72;;;19.09;83.00
71621;BME280;59471;42.254;23.102;2022-08-21T02:14:36;95336.34;;;19.00;83.33
71621;BME280;59471;42.254;23.102;2022-08-21T02:17:03;95333.53;;;19.24;81.50
71621;BME280;59471;42.254;23.102;2022-08-21T02:19:29;95334.50;;;19.17;82.42
71621;BME280;59471;42.254;23.102;2022-08-21T02:21:54;95340.38;;;19.03;83.56
71621;BME280;59471;42.254;23.102;2022-08-21T02:24:20;95335.13;;;18.91;84.06
71621;BME280;59471;42.254;23.102;2022-08-21T02:26:45;95343.28;;;19.01;83.46
71621;BME280;59471;42.254;23.102;2022-08-21T02:29:12;95341.13;;;19.37;82.14
71621;BME280;59471;42.254;23.102;2022-08-21T02:31:38;95334.75;;;19.38;81.25
71621;BME280;59471;42.254;23.102;2022-08-21T02:34:03;95330.22;;;19.16;81.64
71621;BME280;59471;42.254;23.102;2022-08-21T02:36:29;95335.69;;;19.10;82.85
71621;BME280;59471;42.254;23.102;2022-08-21T02:38:55;95346.97;;;19.00;83.16
71621;BME280;59471;42.254;23.102;2022-08-21T02:41:22;95340.38;;;19.03;83.61
71621;BME280;59471;42.254;23.102;2022-08-21T02:43:48;95336.31;;;19.34;80.84
71621;BME280;59471;42.254;23.102;2022-08-21T02:46:16;95345.19;;;19.06;83.86
71621;BME280;59471;42.254;23.102;2022-08-21T02:48:44;95345.34;;;19.33;81.24
71621;BME280;59471;42.254;23.102;2022-08-21T02:51:18;95347.41;;;19.31;82.83
71621;BME280;59471;42.254;23.102;2022-08-21T02:53:47;95352.59;;;19.20;82.87
71621;BME280;59471;42.254;23.102;2022-08-21T02:56:15;95355.81;;;19.06;83.70
71621;BME280;59471;42.254;23.102;2022-08-21T02:58:48;95355.31;;;19.09;83.49
71621;BME280;59471;42.254;23.102;2022-08-21T03:01:16;95356.59;;;19.06;84.46
71621;BME280;59471;42.254;23.102;2022-08-21T03:03:44;95353.84;;;19.35;82.86
71621;BME280;59471;42.254;23.102;2022-08-21T03:06:13;95353.03;;;19.34;82.18
71621;BME280;59471;42.254;23.102;2022-08-21T03:08:40;95353.69;;;19.25;83.03
71621;BME280;59471;42.254;23.102;2022-08-21T03:11:06;95354.19;;;19.21;83.50
71621;BME280;59471;42.254;23.102;2022-08-21T03:13:32;95352.59;;;19.59;81.17
71621;BME280;59471;42.254;23.102;2022-08-21T03:15:58;95357.50;;;19.67;81.04
71621;BME280;59471;42.254;23.102;2022-08-21T03:18:24;95346.69;;;19.74;79.11
71621;BME280;59471;42.254;23.102;2022-08-21T03:20:50;95352.81;;;19.75;78.31
71621;BME280;59471;42.254;23.102;2022-08-21T03:23:17;95352.09;;;19.24;81.33
71621;BME280;59471;42.254;23.102;2022-08-21T03:25:44;95352.41;;;19.10;82.62
71621;BME280;59471;42.254;23.102;2022-08-21T03:28:13;95359.03;;;19.08;82.92
71621;BME280;59471;42.254;23.102;2022-08-21T03:30:45;95360.94;;;19.12;82.55
71621;BME280;59471;42.254;23.102;2022-08-21T03:33:13;95358.22;;;19.07;82.87
71621;BME280;59471;42.254;23.102;2022-08-21T03:35:39;95355.00;;;19.05;83.89
71621;BME280;59471;42.254;23.102;2022-08-21T03:38:06;95367.22;;;19.06;83.33
71621;BME280;59471;42.254;23.102;2022-08-21T03:40:32;95359.81;;;18.91;83.83
71621;BME280;59471;42.254;23.102;2022-08-21T03:42:58;95364.50;;;19.01;83.51
71621;BME280;59471;42.254;23.102;2022-08-21T03:45:24;95361.03;;;19.56;79.64
71621;BME280;59471;42.254;23.102;2022-08-21T03:48:02;95356.28;;;19.19;81.79
71621;BME280;59471;42.254;23.102;2022-08-21T03:50:32;95363.22;;;18.87;83.25
71621;BME280;59471;42.254;23.102;2022-08-21T03:52:59;95361.13;;;18.89;82.93
71621;BME280;59471;42.254;23.102;2022-08-21T03:55:25;95367.47;;;19.05;82.11
71621;BME280;59471;42.254;23.102;2022-08-21T03:57:51;95362.97;;;19.05;82.30
71621;BME280;59471;42.254;23.102;2022-08-21T04:00:18;95370.84;;;19.00;82.64
71621;BME280;59471;42.254;23.102;2022-08-21T04:02:45;95354.84;;;18.95;81.83
71621;BME280;59471;42.254;23.102;2022-08-21T04:05:12;95363.31;;;19.48;79.41
71621;BME280;59471;42.254;23.102;2022-08-21T04:07:39;95366.72;;;19.43;79.30
71621;BME280;59471;42.254;23.102;2022-08-21T04:10:06;95360.28;;;19.22;79.76
71621;BME280;59471;42.254;23.102;2022-08-21T04:12:32;95358.44;;;19.22;79.77
71621;BME280;59471;42.254;23.102;2022-08-21T04:14:58;95349.53;;;19.12;80.42
71621;BME280;59471;42.254;23.102;2022-08-21T04:17:24;95359.31;;;19.28;80.04
71621;BME280;59471;42.254;23.102;2022-08-21T04:19:49;95362.09;;;18.99;80.91
71621;BME280;59471;42.254;23.102;2022-08-21T04:22:16;95372.69;;;18.83;82.91
71621;BME280;59471;42.254;23.102;2022-08-21T04:24:42;95365.94;;;18.92;82.53
71621;BME280;59471;42.254;23.102;2022-08-21T04:27:07;95368.19;;;19.00;83.00
71621;BME280;59471;42.254;23.102;2022-08-21T04:29:33;95376.22;;;18.88;83.49
71621;BME280;59471;42.254;23.102;2022-08-21T04:31:59;95379.50;;;18.79;83.80
71621;BME280;59471;42.254;23.102;2022-08-21T04:34:24;95378.47;;;19.13;81.36
71621;BME280;59471;42.254;23.102;2022-08-21T04:36:50;95389.81;;;19.26;82.08
71621;BME280;59471;42.254;23.102;2022-08-21T04:39:16;95382.19;;;19.12;81.65
71621;BME280;59471;42.254;23.102;2022-08-21T04:41:41;95391.66;;;19.25;81.95
71621;BME280;59471;42.254;23.102;2022-08-21T04:44:07;95400.53;;;19.31;81.62
71621;BME280;59471;42.254;23.102;2022-08-21T04:46:33;95404.50;;;19.50;81.94
71621;BME280;59471;42.254;23.102;2022-08-21T04:48:59;95396.47;;;19.45;81.13
71621;BME280;59471;42.254;23.102;2022-08-21T04:51:28;95386.28;;;19.76;80.42
71621;BME280;59471;42.254;23.102;2022-08-21T04:54:08;95382.81;;;19.36;81.00
71621;BME280;59471;42.254;23.102;2022-08-21T04:56:40;95389.91;;;19.31;81.30
71621;BME280;59471;42.254;23.102;2022-08-21T04:59:14;95400.81;;;19.51;80.80
71621;BME280;59471;42.254;23.102;2022-08-21T05:01:43;95410.44;;;19.57;80.97
71621;BME280;59471;42.254;23.102;2022-08-21T05:04:12;95401.63;;;19.68;80.27
71621;BME280;59471;42.254;23.102;2022-08-21T05:06:41;95395.19;;;19.48;81.39
71621;BME280;59471;42.254;23.102;2022-08-21T05:09:09;95404.75;;;19.65;80.48
71621;BME280;59471;42.254;23.102;2022-08-21T05:11:35;95396.63;;;19.94;78.76
71621;BME280;59471;42.254;23.102;2022-08-21T05:14:02;95392.59;;;19.70;79.75
71621;BME280;59471;42.254;23.102;2022-08-21T05:16:28;95396.31;;;19.68;80.03
71621;BME280;59471;42.254;23.102;2022-08-21T05:18:53;95402.09;;;19.65;79.66
71621;BME280;59471;42.254;23.102;2022-08-21T05:21:19;95401.53;;;20.02;77.16
71621;BME280;59471;42.254;23.102;2022-08-21T05:23:46;95403.63;;;20.00;76.86
71621;BME280;59471;42.254;23.102;2022-08-21T05:26:12;95399.53;;;19.71;79.11
71621;BME280;59471;42.254;23.102;2022-08-21T05:28:37;95410.97;;;19.71;80.21
71621;BME280;59471;42.254;23.102;2022-08-21T05:31:03;95406.34;;;20.05;78.88
71621;BME280;59471;42.254;23.102;2022-08-21T05:33:29;95410.22;;;19.98;79.31
71621;BME280;59471;42.254;23.102;2022-08-21T05:35:55;95402.63;;;20.06;79.19
71621;BME280;59471;42.254;23.102;2022-08-21T05:38:22;95398.38;;;20.05;78.48
71621;BME280;59471;42.254;23.102;2022-08-21T05:40:49;95396.44;;;20.23;77.17
71621;BME280;59471;42.254;23.102;2022-08-21T05:43:15;95401.66;;;20.12;77.41
71621;BME280;59471;42.254;23.102;2022-08-21T05:45:42;95382.91;;;20.24;76.75
71621;BME280;59471;42.254;23.102;2022-08-21T05:48:30;95386.28;;;20.20;76.40
71621;BME280;59471;42.254;23.102;2022-08-21T05:50:54;95390.56;;;20.21;76.68
71621;BME280;59471;42.254;23.102;2022-08-21T05:53:21;95391.50;;;20.09;76.82
71621;BME280;59471;42.254;23.102;2022-08-21T05:55:48;95399.16;;;19.84;78.56
71621;BME280;59471;42.254;23.102;2022-08-21T05:58:17;95396.50;;;19.84;78.97
71621;BME280;59471;42.254;23.102;2022-08-21T06:00:44;95398.91;;;20.07;77.91
71621;BME280;59471;42.254;23.102;2022-08-21T06:03:15;95391.63;;;20.20;77.69
71621;BME280;59471;42.254;23.102;2022-08-21T06:05:42;95387.09;;;20.20;77.27
71621;BME280;59471;42.254;23.102;2022-08-21T06:08:08;95395.22;;;20.08;78.25
71621;BME280;59471;42.254;23.102;2022-08-21T06:10:34;95381.47;;;20.17;77.23
71621;BME280;59471;42.254;23.102;2022-08-21T06:12:59;95376.63;;;20.08;77.84
71621;BME280;59471;42.254;23.102;2022-08-21T06:15:25;95376.06;;;20.06;77.19
71621;BME280;59471;42.254;23.102;2022-08-21T06:17:52;95368.66;;;20.35;76.79
71621;BME280;59471;42.254;23.102;2022-08-21T06:20:19;95371.06;;;20.37;76.46
71621;BME280;59471;42.254;23.102;2022-08-21T06:22:44;95376.13;;;20.11;77.55
71621;BME280;59471;42.254;23.102;2022-08-21T06:25:10;95372.69;;;20.38;77.21
71621;BME280;59471;42.254;23.102;2022-08-21T06:27:36;95376.22;;;20.49;75.87
71621;BME280;59471;42.254;23.102;2022-08-21T06:30:03;95380.50;;;20.50;77.96
71621;BME280;59471;42.254;23.102;2022-08-21T06:32:30;95378.75;;;20.55;76.06
71621;BME280;59471;42.254;23.102;2022-08-21T06:34:56;95376.91;;;20.61;75.78
71621;BME280;59471;42.254;23.102;2022-08-21T06:37:21;95383.53;;;20.58;76.11
71621;BME280;59471;42.254;23.102;2022-08-21T06:39:47;95379.94;;;20.70;75.48
71621;BME280;59471;42.254;23.102;2022-08-21T06:42:15;95379.84;;;20.59;75.65
71621;BME280;59471;42.254;23.102;2022-08-21T06:44:41;95381.00;;;20.69;75.97
71621;BME280;59471;42.254;23.102;2022-08-21T06:47:07;95376.41;;;20.37;77.07
71621;BME280;59471;42.254;23.102;2022-08-21T06:49:33;95385.78;;;20.45;78.43
71621;BME280;59471;42.254;23.102;2022-08-21T06:51:59;95382.00;;;20.63;77.11
71621;BME280;59471;42.254;23.102;2022-08-21T06:54:25;95393.63;;;21.16;77.18
71621;BME280;59471;42.254;23.102;2022-08-21T06:56:51;95384.16;;;21.67;73.41
71621;BME280;59471;42.254;23.102;2022-08-21T06:59:16;95379.59;;;21.63;70.91
71621;BME280;59471;42.254;23.102;2022-08-21T07:01:42;95385.44;;;21.60;72.57
71621;BME280;59471;42.254;23.102;2022-08-21T07:04:08;95378.63;;;21.84;73.04
71621;BME280;59471;42.254;23.102;2022-08-21T07:06:33;95380.88;;;22.13;71.75
71621;BME280;59471;42.254;23.102;2022-08-21T07:08:59;95376.47;;;21.76;70.34
71621;BME280;59471;42.254;23.102;2022-08-21T07:11:26;95373.72;;;21.61;71.00
71621;BME280;59471;42.254;23.102;2022-08-21T07:13:52;95379.28;;;21.54;71.13
71621;BME280;59471;42.254;23.102;2022-08-21T07:16:20;95380.81;;;21.92;72.35
71621;BME280;59471;42.254;23.102;2022-08-21T07:18:46;95377.66;;;22.01;70.52
71621;BME280;59471;42.254;23.102;2022-08-21T07:21:12;95377.25;;;22.44;70.39
71621;BME280;59471;42.254;23.102;2022-08-21T07:23:41;95372.84;;;21.97;69.36
71621;BME280;59471;42.254;23.102;2022-08-21T07:26:08;95365.91;;;22.07;67.78
71621;BME280;59471;42.254;23.102;2022-08-21T07:28:34;95356.84;;;21.97;68.50
71621;BME280;59471;42.254;23.102;2022-08-21T07:31:01;95360.59;;;22.07;71.51
71621;BME280;59471;42.254;23.102;2022-08-21T07:33:30;95360.72;;;22.48;67.15
71621;BME280;59471;42.254;23.102;2022-08-21T07:35:56;95359.50;;;22.03;69.01
71621;BME280;59471;42.254;23.102;2022-08-21T07:38:23;95360.63;;;22.12;68.78
71621;BME280;59471;42.254;23.102;2022-08-21T07:40:51;95355.34;;;22.17;67.00
71621;BME280;59471;42.254;23.102;2022-08-21T07:43:18;95353.53;;;22.43;67.21
71621;BME280;59471;42.254;23.102;2022-08-21T07:45:44;95347.91;;;22.39;67.14
71621;BME280;59471;42.254;23.102;2022-08-21T07:48:10;95347.44;;;22.83;63.59
71621;BME280;59471;42.254;23.102;2022-08-21T07:50:36;95347.19;;;22.90;65.72
71621;BME280;59471;42.254;23.102;2022-08-21T07:53:02;95349.63;;;23.02;62.94
71621;BME280;59471;42.254;23.102;2022-08-21T07:55:29;95340.50;;;22.72;62.71
71621;BME280;59471;42.254;23.102;2022-08-21T07:57:54;95336.75;;;22.83;62.53
71621;BME280;59471;42.254;23.102;2022-08-21T08:00:22;95345.28;;;22.75;64.56
71621;BME280;59471;42.254;23.102;2022-08-21T08:02:50;95336.19;;;22.40;67.23
71621;BME280;59471;42.254;23.102;2022-08-21T08:05:20;95342.63;;;22.80;66.50
71621;BME280;59471;42.254;23.102;2022-08-21T08:07:47;95331.19;;;22.95;65.43
71621;BME280;59471;42.254;23.102;2022-08-21T08:10:13;95336.50;;;22.90;67.28
71621;BME280;59471;42.254;23.102;2022-08-21T08:12:40;95336.75;;;22.88;65.34
71621;BME280;59471;42.254;23.102;2022-08-21T08:15:10;95338.34;;;22.84;66.41
71621;BME280;59471;42.254;23.102;2022-08-21T08:17:37;95322.34;;;22.74;65.83
71621;BME280;59471;42.254;23.102;2022-08-21T08:20:05;95330.91;;;22.76;65.23
71621;BME280;59471;42.254;23.102;2022-08-21T08:22:33;95327.41;;;22.71;66.39
71621;BME280;59471;42.254;23.102;2022-08-21T08:25:00;95327.69;;;22.74;65.54
71621;BME280;59471;42.254;23.102;2022-08-21T08:27:26;95330.91;;;23.07;66.36
71621;BME280;59471;42.254;23.102;2022-08-21T08:29:52;95337.31;;;23.11;65.72
71621;BME280;59471;42.254;23.102;2022-08-21T08:32:18;95331.16;;;23.16;64.60
71621;BME280;59471;42.254;23.102;2022-08-21T08:34:44;95327.13;;;23.33;65.05
71621;BME280;59471;42.254;23.102;2022-08-21T08:37:11;95325.50;;;23.53;64.25
71621;BME280;59471;42.254;23.102;2022-08-21T08:39:38;95323.50;;;23.94;61.07
71621;BME280;59471;42.254;23.102;2022-08-21T08:44:34;95321.84;;;24.03;61.28
71621;BME280;59471;42.254;23.102;2022-08-21T08:47:01;95323.72;;;24.03;61.32
71621;BME280;59471;42.254;23.102;2022-08-21T08:49:48;95327.59;;;23.66;61.96
71621;BME280;59471;42.254;23.102;2022-08-21T08:52:33;95324.53;;;23.98;63.07
71621;BME280;59471;42.254;23.102;2022-08-21T08:55:11;95322.44;;;24.40;62.12
71621;BME280;59471;42.254;23.102;2022-08-21T08:57:46;95328.09;;;24.38;60.61
71621;BME280;59471;42.254;23.102;2022-08-21T09:00:15;95323.00;;;24.42;60.25
71621;BME280;59471;42.254;23.102;2022-08-21T09:02:44;95323.19;;;24.01;62.52
71621;BME280;59471;42.254;23.102;2022-08-21T09:05:20;95322.59;;;24.14;61.92
71621;BME280;59471;42.254;23.102;2022-08-21T09:13:50;95306.47;;;24.29;59.73
71621;BME280;59471;42.254;23.102;2022-08-21T09:19:33;95305.50;;;24.05;62.18
71621;BME280;59471;42.254;23.102;2022-08-21T09:22:13;95296.91;;;24.18;61.94
71621;BME280;59471;42.254;23.102;2022-08-21T09:27:35;95289.44;;;24.10;63.43
71621;BME280;59471;42.254;23.102;2022-08-21T09:30:03;95280.88;;;24.08;61.54
71621;BME280;59471;42.254;23.102;2022-08-21T09:32:32;95281.97;;;24.12;62.41
71621;BME280;59471;42.254;23.102;2022-08-21T09:37:34;95273.25;;;23.86;63.17
71621;BME280;59471;42.254;23.102;2022-08-21T09:40:41;95276.69;;;23.92;62.06
71621;BME280;59471;42.254;23.102;2022-08-21T09:45:35;95271.66;;;23.85;61.92
71621;BME280;59471;42.254;23.102;2022-08-21T09:50:52;95271.72;;;24.24;60.47
71621;BME280;59471;42.254;23.102;2022-08-21T09:53:27;95266.78;;;24.47;58.93
71621;BME280;59471;42.254;23.102;2022-08-21T09:56:00;95265.72;;;24.43;57.57
71621;BME280;59471;42.254;23.102;2022-08-21T09:58:49;95258.38;;;24.14;58.45
71621;BME280;59471;42.254;23.102;2022-08-21T10:01:25;95249.78;;;24.22;59.77
71621;BME280;59471;42.254;23.102;2022-08-21T10:07:12;95250.19;;;24.40;59.15
71621;BME280;59471;42.254;23.102;2022-08-21T10:09:39;95244.28;;;24.48;57.22
71621;BME280;59471;42.254;23.102;2022-08-21T10:15:03;95230.88;;;24.82;57.43
71621;BME280;59471;42.254;23.102;2022-08-21T10:25:40;95222.84;;;24.53;57.89
71621;BME280;59471;42.254;23.102;2022-08-21T10:31:51;95221.91;;;24.28;59.16
71621;BME280;59471;42.254;23.102;2022-08-21T10:41:44;95216.94;;;24.51;59.42
71621;BME280;59471;42.254;23.102;2022-08-21T10:44:49;95217.41;;;24.58;58.93
71621;BME280;59471;42.254;23.102;2022-08-21T10:47:32;95219.28;;;24.87;56.72
71621;BME280;59471;42.254;23.102;2022-08-21T10:50:12;95219.50;;;24.95;57.27
71621;BME280;59471;42.254;23.102;2022-08-21T10:55:44;95203.38;;;24.71;59.87
71621;BME280;59471;42.254;23.102;2022-08-21T10:58:28;95197.22;;;25.00;56.08
71621;BME280;59471;42.254;23.102;2022-08-21T11:01:00;95196.09;;;24.77;59.47
71621;BME280;59471;42.254;23.102;2022-08-21T11:03:43;95190.63;;;24.63;59.98
71621;BME280;59471;42.254;23.102;2022-08-21T11:06:25;95179.28;;;24.71;60.27
71621;BME280;59471;42.254;23.102;2022-08-21T11:09:09;95182.84;;;24.62;58.83
71621;BME280;59471;42.254;23.102;2022-08-21T11:11:44;95191.84;;;24.47;61.21
71621;BME280;59471;42.254;23.102;2022-08-21T11:14:30;95205.56;;;24.69;60.85
71621;BME280;59471;42.254;23.102;2022-08-21T11:17:09;95205.13;;;24.57;61.77
71621;BME280;59471;42.254;23.102;2022-08-21T11:19:39;95190.53;;;24.68;62.10
71621;BME280;59471;42.254;23.102;2022-08-21T11:22:35;95184.22;;;24.59;62.34
71621;BME280;59471;42.254;23.102;2022-08-21T11:25:11;95178.16;;;24.48;61.95
71621;BME280;59471;42.254;23.102;2022-08-21T11:27:50;95173.44;;;24.35;63.17
71621;BME280;59471;42.254;23.102;2022-08-21T11:30:19;95174.50;;;24.34;64.48
71621;BME280;59471;42.254;23.102;2022-08-21T11:33:03;95183.03;;;24.41;61.95
71621;BME280;59471;42.254;23.102;2022-08-21T11:36:07;95189.38;;;24.11;64.40
71621;BME280;59471;42.254;23.102;2022-08-21T11:38:43;95180.06;;;24.43;62.09
71621;BME280;59471;42.254;23.102;2022-08-21T11:41:30;95189.34;;;24.21;63.12
71621;BME280;59471;42.254;23.102;2022-08-21T11:46:56;95185.91;;;24.50;62.65
71621;BME280;59471;42.254;23.102;2022-08-21T11:52:52;95202.97;;;24.20;63.75
71621;BME280;59471;42.254;23.102;2022-08-21T11:57:55;95190.00;;;23.48;66.89
71621;BME280;59471;42.254;23.102;2022-08-21T12:00:26;95196.25;;;23.23;68.16
71621;BME280;59471;42.254;23.102;2022-08-21T12:02:58;95199.03;;;22.67;70.89
71621;BME280;59471;42.254;23.102;2022-08-21T12:05:34;95211.31;;;22.58;72.14
71621;BME280;59471;42.254;23.102;2022-08-21T12:13:40;95201.19;;;22.24;74.81
71621;BME280;59471;42.254;23.102;2022-08-21T12:16:41;95199.84;;;22.16;75.21
71621;BME280;59471;42.254;23.102;2022-08-21T12:19:29;95194.22;;;22.08;75.46
71621;BME280;59471;42.254;23.102;2022-08-21T12:24:49;95190.50;;;22.34;73.59
71621;BME280;59471;42.254;23.102;2022-08-21T12:27:45;95189.16;;;22.47;72.60
71621;BME280;59471;42.254;23.102;2022-08-21T12:30:43;95189.41;;;22.15;73.27
71621;BME280;59471;42.254;23.102;2022-08-21T12:33:30;95192.63;;;22.22;73.27
71621;BME280;59471;42.254;23.102;2022-08-21T12:36:06;95201.16;;;22.04;74.03
71621;BME280;59471;42.254;23.102;2022-08-21T12:39:00;95201.91;;;21.89;74.01
71621;BME280;59471;42.254;23.102;2022-08-21T12:41:49;95202.72;;;21.94;74.47
71621;BME280;59471;42.254;23.102;2022-08-21T12:44:34;95198.47;;;22.09;73.28
71621;BME280;59471;42.254;23.102;2022-08-21T12:47:11;95202.72;;;22.10;73.16
71621;BME280;59471;42.254;23.102;2022-08-21T12:49:51;95196.38;;;22.21;73.07
71621;BME280;59471;42.254;23.102;2022-08-21T12:52:23;95199.03;;;22.16;72.86
71621;BME280;59471;42.254;23.102;2022-08-21T12:54:53;95199.03;;;22.16;72.67
71621;BME280;59471;42.254;23.102;2022-08-21T12:57:25;95193.69;;;22.16;73.16
71621;BME280;59471;42.254;23.102;2022-08-21T12:59:57;95195.75;;;21.78;74.40
71621;BME280;59471;42.254;23.102;2022-08-21T13:02:36;95202.69;;;21.84;75.23
71621;BME280;59471;42.254;23.102;2022-08-21T13:05:06;95210.16;;;21.82;75.00
71621;BME280;59471;42.254;23.102;2022-08-21T13:07:35;95207.75;;;21.70;75.38
71621;BME280;59471;42.254;23.102;2022-08-21T13:10:18;95213.34;;;21.74;76.06
71621;BME280;59471;42.254;23.102;2022-08-21T13:12:46;95222.31;;;21.52;76.96
71621;BME280;59471;42.254;23.102;2022-08-21T13:15:13;95225.69;;;21.33;78.16
71621;BME280;59471;42.254;23.102;2022-08-21T13:17:43;95219.63;;;21.42;78.49
71621;BME280;59471;42.254;23.102;2022-08-21T13:20:23;95231.94;;;21.59;78.39
71621;BME280;59471;42.254;23.102;2022-08-21T13:22:50;95225.00;;;21.47;78.60
71621;BME280;59471;42.254;23.102;2022-08-21T13:25:19;95222.03;;;21.39;80.29
71621;BME280;59471;42.254;23.102;2022-08-21T13:28:16;95223.34;;;21.36;78.35
71621;BME280;59471;42.254;23.102;2022-08-21T13:30:51;95205.03;;;21.55;78.54
71621;BME280;59471;42.254;23.102;2022-08-21T13:33:22;95195.94;;;21.46;78.27
71621;BME280;59471;42.254;23.102;2022-08-21T13:38:24;95183.88;;;21.28;79.66
71621;BME280;59471;42.254;23.102;2022-08-21T13:41:08;95181.56;;;21.47;78.59
71621;BME280;59471;42.254;23.102;2022-08-21T13:44:06;95179.69;;;21.52;78.75
71621;BME280;59471;42.254;23.102;2022-08-21T13:46:40;95165.22;;;21.33;78.63
71621;BME280;59471;42.254;23.102;2022-08-21T13:49:07;95166.94;;;21.55;77.77
71621;BME280;59471;42.254;23.102;2022-08-21T13:51:34;95156.78;;;21.51;76.42
71621;BME280;59471;42.254;23.102;2022-08-21T13:54:01;95154.44;;;21.60;75.94
71621;BME280;59471;42.254;23.102;2022-08-21T13:56:44;95153.13;;;21.73;75.96
71621;BME280;59471;42.254;23.102;2022-08-21T13:59:11;95157.66;;;21.72;75.70
71621;BME280;59471;42.254;23.102;2022-08-21T14:01:48;95159.53;;;21.87;75.53
71621;BME280;59471;42.254;23.102;2022-08-21T14:04:23;95153.66;;;21.90;75.24
71621;BME280;59471;42.254;23.102;2022-08-21T14:06:52;95140.34;;;22.16;72.93
71621;BME280;59471;42.254;23.102;2022-08-21T14:09:40;95130.72;;;22.10;73.86
71621;BME280;59471;42.254;23.102;2022-08-21T14:12:17;95139.81;;;22.19;72.80
71621;BME280;59471;42.254;23.102;2022-08-21T14:14:52;95147.28;;;22.02;74.12
71621;BME280;59471;42.254;23.102;2022-08-21T14:17:32;95144.66;;;22.32;73.00